sensor_id;sensor_type;location;lat;lon;timestamp;pressure;altitude;pressure_sealevel;temperature;humidity
55301;BME280;58302;51.446;-2.000;2023-03-09T00:02:00;98216.34;;;0.32;100.00
55301;BME280;58302;51.446;-2.000;2023-03-09T00:04:26;98228.66;;;0.33;100.00
55301;BME280;58302;51.446;-2.000;2023-03-09T00:06:52;98237.44;;;0.28;100.00
55301;BME280;58302;51.446;-2.000;2023-03-09T00:09:19;98241.47;;;0.31;100.00
55301;BME280;58302;51.446;-2.000;2023-03-09T00:11:47;98246.06;;;0.35;100.00
55301;BME280;58302;51.446;-2.000;2023-03-09T00:14:14;98248.47;;;0.37;100.00
55301;BME280;58302;51.446;-2.000;2023-03-09T00:16:41;98251.13;;;0.37;100.00
55301;BME280;58302;51.446;-2.000;2023-03-09T00:19:07;98258.88;;;0.33;100.00
55301;BME280;58302;51.446;-2.000;2023-03-09T00:21:34;98248.41;;;0.32;100.00
55301;BME280;58302;51.446;-2.000;2023-03-09T00:24:08;98253.75;;;0.32;100.00
55301;BME280;58302;51.446;-2.000;2023-03-09T00:26:35;98253.22;;;0.30;100.00
55301;BME280;58302;51.446;-2.000;2023-03-09T00:29:03;98267.91;;;0.32;100.00
55301;BME280;58302;51.446;-2.000;2023-03-09T00:31:29;98268.97;;;0.31;100.00
55301;BME280;58302;51.446;-2.000;2023-03-09T00:33:55;98292.75;;;0.33;100.00
55301;BME280;58302;51.446;-2.000;2023-03-09T00:36:21;98285.81;;;0.32;100.00
55301;BME280;58302;51.446;-2.000;2023-03-09T00:38:52;98298.38;;;0.31;100.00
55301;BME280;58302;51.446;-2.000;2023-03-09T00:41:19;98305.31;;;0.32;100.00
55301;BME280;58302;51.446;-2.000;2023-03-09T00:43:45;98312.78;;;0.30;100.00
55301;BME280;58302;51.446;-2.000;2023-03-09T00:46:13;98309.31;;;0.30;100.00
55301;BME280;58302;51.446;-2.000;2023-03-09T00:48:39;98311.19;;;0.29;100.00
55301;BME280;58302;51.446;-2.000;2023-03-09T00:51:06;98315.13;;;0.26;100.00
55301;BME280;58302;51.446;-2.000;2023-03-09T00:53:32;98327.94;;;0.24;100.00
55301;BME280;58302;51.446;-2.000;2023-03-09T00:56:07;98345.31;;;0.27;100.00
55301;BME280;58302;51.446;-2.000;2023-03-09T00:58:33;98337.09;;;0.29;100.00
55301;BME280;58302;51.446;-2.000;2023-03-09T01:00:59;98347.78;;;0.29;100.00
55301;BME280;58302;51.446;-2.000;2023-03-09T01:03:26;98337.09;;;0.29;100.00
55301;BME280;58302;51.446;-2.000;2023-03-09T01:05:52;98338.44;;;0.31;100.00
55301;BME280;58302;51.446;-2.000;2023-03-09T01:08:18;98342.72;;;0.32;100.00
55301;BME280;58302;51.446;-2.000;2023-03-09T01:10:44;98344.34;;;0.33;100.00
55301;BME280;58302;51.446;-2.000;2023-03-09T01:13:10;98335.50;;;0.33;100.00
55301;BME280;58302;51.446;-2.000;2023-03-09T01:15:37;98331.22;;;0.32;100.00
55301;BME280;58302;51.446;-2.000;2023-03-09T01:18:03;98347.50;;;0.30;100.00
55301;BME280;58302;51.446;-2.000;2023-03-09T01:20:29;98343.50;;;0.28;100.00
55301;BME280;58302;51.446;-2.000;2023-03-09T01:22:55;98353.91;;;0.29;100.00
55301;BME280;58302;51.446;-2.000;2023-03-09T01:25:21;98351.00;;;0.31;100.00
55301;BME280;58302;51.446;-2.000;2023-03-09T01:27:47;98360.56;;;0.26;100.00
55301;BME280;58302;51.446;-2.000;2023-03-09T01:30:13;98364.34;;;0.31;100.00
55301;BME280;58302;51.446;-2.000;2023-03-09T01:32:39;98358.47;;;0.29;100.00
55301;BME280;58302;51.446;-2.000;2023-03-09T01:35:06;98367.53;;;0.28;100.00
55301;BME280;58302;51.446;-2.000;2023-03-09T01:37:32;98369.13;;;0.29;100.00
55301;BME280;58302;51.446;-2.000;2023-03-09T01:39:58;98365.66;;;0.28;100.00
55301;BME280;58302;51.446;-2.000;2023-03-09T01:42:24;98366.69;;;0.27;100.00
55301;BME280;58302;51.446;-2.000;2023-03-09T01:47:59;98380.31;;;0.25;100.00
55301;BME280;58302;51.446;-2.000;2023-03-09T01:50:28;98377.31;;;0.22;100.00
55301;BME280;58302;51.446;-2.000;2023-03-09T01:52:58;98384.59;;;0.26;100.00
55301;BME280;58302;51.446;-2.000;2023-03-09T01:55:31;98391.38;;;0.34;100.00
55301;BME280;58302;51.446;-2.000;2023-03-09T01:58:01;98393.78;;;0.36;100.00
55301;BME280;58302;51.446;-2.000;2023-03-09T02:00:28;98397.78;;;0.33;100.00
55301;BME280;58302;51.446;-2.000;2023-03-09T02:03:02;98398.00;;;0.32;100.00
55301;BME280;58302;51.446;-2.000;2023-03-09T02:05:43;98413.22;;;0.31;100.00
55301;BME280;58302;51.446;-2.000;2023-03-09T02:08:11;98424.72;;;0.32;100.00
55301;BME280;58302;51.446;-2.000;2023-03-09T02:11:02;98431.94;;;0.31;100.00
55301;BME280;58302;51.446;-2.000;2023-03-09T02:13:32;98435.66;;;0.30;100.00
55301;BME280;58302;51.446;-2.000;2023-03-09T02:15:59;98431.94;;;0.31;100.00
55301;BME280;58302;51.446;-2.000;2023-03-09T02:18:25;98426.91;;;0.35;100.00
55301;BME280;58302;51.446;-2.000;2023-03-09T02:21:03;98440.22;;;0.30;100.00
55301;BME280;58302;51.446;-2.000;2023-03-09T02:26:15;98438.59;;;0.29;100.00
55301;BME280;58302;51.446;-2.000;2023-03-09T02:28:44;98432.94;;;0.25;100.00
55301;BME280;58302;51.446;-2.000;2023-03-09T02:31:11;98452.50;;;0.31;100.00
55301;BME280;58302;51.446;-2.000;2023-03-09T02:33:39;98453.31;;;0.31;100.00
55301;BME280;58302;51.446;-2.000;2023-03-09T02:36:05;98454.09;;;0.32;100.00
55301;BME280;58302;51.446;-2.000;2023-03-09T02:38:31;98450.81;;;0.24;100.00
55301;BME280;58302;51.446;-2.000;2023-03-09T02:40:59;98451.31;;;0.21;100.00
55301;BME280;58302;51.446;-2.000;2023-03-09T02:43:30;98439.34;;;0.24;100.00
55301;BME280;58302;51.446;-2.000;2023-03-09T02:45:58;98446.53;;;0.23;100.00
55301;BME280;58302;51.446;-2.000;2023-03-09T02:48:24;98454.31;;;0.25;100.00
55301;BME280;58302;51.446;-2.000;2023-03-09T02:50:50;98451.38;;;0.26;100.00
55301;BME280;58302;51.446;-2.000;2023-03-09T02:53:16;98442.56;;;0.26;100.00
55301;BME280;58302;51.446;-2.000;2023-03-09T02:55:42;98435.84;;;0.23;100.00
55301;BME280;58302;51.446;-2.000;2023-03-09T02:58:08;98431.56;;;0.22;100.00
55301;BME280;58302;51.446;-2.000;2023-03-09T03:00:34;98430.25;;;0.25;100.00
55301;BME280;58302;51.446;-2.000;2023-03-09T03:03:00;98437.94;;;0.21;100.00
55301;BME280;58302;51.446;-2.000;2023-03-09T03:05:26;98439.06;;;0.25;100.00
55301;BME280;58302;51.446;-2.000;2023-03-09T03:07:52;98429.53;;;0.30;100.00
55301;BME280;58302;51.446;-2.000;2023-03-09T03:10:18;98430.06;;;0.32;100.00
55301;BME280;58302;51.446;-2.000;2023-03-09T03:12:44;98419.16;;;0.33;100.00
55301;BME280;58302;51.446;-2.000;2023-03-09T03:15:10;98410.31;;;0.33;100.00
55301;BME280;58302;51.446;-2.000;2023-03-09T03:17:36;98431.69;;;0.33;100.00
55301;BME280;58302;51.446;-2.000;2023-03-09T03:20:03;98433.25;;;0.29;100.00
55301;BME280;58302;51.446;-2.000;2023-03-09T03:22:31;98436.72;;;0.29;100.00
55301;BME280;58302;51.446;-2.000;2023-03-09T03:24:57;98430.81;;;0.27;100.00
55301;BME280;58302;51.446;-2.000;2023-03-09T03:27:23;98433.94;;;0.19;100.00
55301;BME280;58302;51.446;-2.000;2023-03-09T03:29:51;98440.88;;;0.20;100.00
55301;BME280;58302;51.446;-2.000;2023-03-09T03:32:18;98444.94;;;0.22;100.00
55301;BME280;58302;51.446;-2.000;2023-03-09T03:34:44;98448.63;;;0.21;100.00
55301;BME280;58302;51.446;-2.000;2023-03-09T03:37:09;98443.28;;;0.21;100.00
55301;BME280;58302;51.446;-2.000;2023-03-09T03:39:35;98438.53;;;0.23;100.00
55301;BME280;58302;51.446;-2.000;2023-03-09T03:42:01;98438.53;;;0.23;100.00
55301;BME280;58302;51.446;-2.000;2023-03-09T03:44:27;98437.72;;;0.23;100.00
55301;BME280;58302;51.446;-2.000;2023-03-09T03:46:53;98433.72;;;0.25;100.00
55301;BME280;58302;51.446;-2.000;2023-03-09T03:49:20;98439.06;;;0.25;100.00
55301;BME280;58302;51.446;-2.000;2023-03-09T03:51:47;98439.06;;;0.25;100.00
55301;BME280;58302;51.446;-2.000;2023-03-09T03:54:13;98433.19;;;0.23;100.00
55301;BME280;58302;51.446;-2.000;2023-03-09T03:56:39;98443.28;;;0.21;100.00
55301;BME280;58302;51.446;-2.000;2023-03-09T03:59:05;98454.56;;;0.23;100.00
55301;BME280;58302;51.446;-2.000;2023-03-09T04:01:31;98447.53;;;0.17;100.00
55301;BME280;58302;51.446;-2.000;2023-03-09T04:03:56;98451.22;;;0.16;100.00
55301;BME280;58302;51.446;-2.000;2023-03-09T04:06:22;98448.00;;;0.14;100.00
55301;BME280;58302;51.446;-2.000;2023-03-09T04:08:48;98452.28;;;0.15;100.00
55301;BME280;58302;51.446;-2.000;2023-03-09T04:11:14;98460.09;;;0.17;100.00
55301;BME280;58302;51.446;-2.000;2023-03-09T04:13:40;98461.13;;;0.16;100.00
55301;BME280;58302;51.446;-2.000;2023-03-09T04:16:08;98450.69;;;0.14;100.00
55301;BME280;58302;51.446;-2.000;2023-03-09T04:18:34;98443.19;;;0.11;100.00
55301;BME280;58302;51.446;-2.000;2023-03-09T04:21:00;98445.84;;;0.11;100.00
55301;BME280;58302;51.446;-2.000;2023-03-09T04:23:26;98441.88;;;0.14;100.00
55301;BME280;58302;51.446;-2.000;2023-03-09T04:25:57;98443.00;;;0.18;100.00
55301;BME280;58302;51.446;-2.000;2023-03-09T04:28:23;98437.06;;;0.16;100.00
55301;BME280;58302;51.446;-2.000;2023-03-09T04:30:50;98437.34;;;0.14;100.00
55301;BME280;58302;51.446;-2.000;2023-03-09T04:33:16;98443.28;;;0.21;100.00
55301;BME280;58302;51.446;-2.000;2023-03-09T04:35:42;98460.38;;;0.20;100.00
55301;BME280;58302;51.446;-2.000;2023-03-09T04:38:09;98456.56;;;0.16;100.00
55301;BME280;58302;51.446;-2.000;2023-03-09T04:40:35;98456.56;;;0.16;100.00
55301;BME280;58302;51.446;-2.000;2023-03-09T04:43:01;98454.47;;;0.18;100.00
55301;BME280;58302;51.446;-2.000;2023-03-09T04:45:28;98454.78;;;0.22;100.00
55301;BME280;58302;51.446;-2.000;2023-03-09T04:47:54;98455.84;;;0.21;100.00
55301;BME280;58302;51.446;-2.000;2023-03-09T04:50:21;98447.28;;;0.19;100.00
55301;BME280;58302;51.446;-2.000;2023-03-09T04:52:47;98456.34;;;0.18;100.00
55301;BME280;58302;51.446;-2.000;2023-03-09T04:55:13;98460.63;;;0.19;100.00
55301;BME280;58302;51.446;-2.000;2023-03-09T04:57:39;98466.31;;;0.22;100.00
55301;BME280;58302;51.446;-2.000;2023-03-09T05:00:05;98455.34;;;0.24;100.00
55301;BME280;58302;51.446;-2.000;2023-03-09T05:02:35;98443.53;;;0.20;100.00
55301;BME280;58302;51.446;-2.000;2023-03-09T05:05:01;98443.00;;;0.18;100.00
55301;BME280;58302;51.446;-2.000;2023-03-09T05:07:27;98438.75;;;0.22;100.00
55301;BME280;58302;51.446;-2.000;2023-03-09T05:09:53;98433.66;;;0.20;100.00
55301;BME280;58302;51.446;-2.000;2023-03-09T05:12:19;98423.84;;;0.26;100.00
55301;BME280;58302;51.446;-2.000;2023-03-09T05:14:45;98426.31;;;0.28;100.00
55301;BME280;58302;51.446;-2.000;2023-03-09T05:17:11;98438.00;;;0.26;100.00
55301;BME280;58302;51.446;-2.000;2023-03-09T05:19:36;98438.53;;;0.23;100.00
55301;BME280;58302;51.446;-2.000;2023-03-09T05:22:03;98431.38;;;0.29;100.00
55301;BME280;58302;51.446;-2.000;2023-03-09T05:24:30;98428.72;;;0.29;100.00
55301;BME280;58302;51.446;-2.000;2023-03-09T05:26:56;98424.44;;;0.28;100.00
55301;BME280;58302;51.446;-2.000;2023-03-09T05:29:22;98419.63;;;0.30;100.00
55301;BME280;58302;51.446;-2.000;2023-03-09T05:31:48;98414.84;;;0.32;100.00
55301;BME280;58302;51.446;-2.000;2023-03-09T05:34:14;98411.94;;;0.34;100.00
55301;BME280;58302;51.446;-2.000;2023-03-09T05:36:40;98411.63;;;0.30;100.00
55301;BME280;58302;51.446;-2.000;2023-03-09T05:39:06;98410.56;;;0.31;100.00
55301;BME280;58302;51.446;-2.000;2023-03-09T05:41:32;98412.44;;;0.31;100.00
55301;BME280;58302;51.446;-2.000;2023-03-09T05:43:59;98404.97;;;0.33;100.00
55301;BME280;58302;51.446;-2.000;2023-03-09T05:46:25;98411.88;;;0.29;100.00
55301;BME280;58302;51.446;-2.000;2023-03-09T05:48:51;98405.47;;;0.30;100.00
55301;BME280;58302;51.446;-2.000;2023-03-09T05:51:17;98405.47;;;0.30;100.00
55301;BME280;58302;51.446;-2.000;2023-03-09T05:53:43;98414.03;;;0.32;100.00
55301;BME280;58302;51.446;-2.000;2023-03-09T05:56:09;98412.50;;;0.36;100.00
55301;BME280;58302;51.446;-2.000;2023-03-09T05:58:35;98408.22;;;0.35;100.00
55301;BME280;58302;51.446;-2.000;2023-03-09T06:01:01;98403.59;;;0.30;100.00
55301;BME280;58302;51.446;-2.000;2023-03-09T06:03:27;98401.50;;;0.32;100.00
55301;BME280;58302;51.446;-2.000;2023-03-09T06:06:00;98405.53;;;0.35;100.00
55301;BME280;58302;51.446;-2.000;2023-03-09T06:08:26;98398.06;;;0.37;100.00
55301;BME280;58302;51.446;-2.000;2023-03-09T06:10:52;98395.34;;;0.32;100.00
55301;BME280;58302;51.446;-2.000;2023-03-09T06:13:18;98394.66;;;0.41;100.00
55301;BME280;58302;51.446;-2.000;2023-03-09T06:15:46;98396.78;;;0.39;100.00
55301;BME280;58302;51.446;-2.000;2023-03-09T06:18:12;98389.56;;;0.40;100.00
55301;BME280;58302;51.446;-2.000;2023-03-09T06:20:38;98397.81;;;0.38;100.00
55301;BME280;58302;51.446;-2.000;2023-03-09T06:23:04;98400.50;;;0.38;100.00
55301;BME280;58302;51.446;-2.000;2023-03-09T06:25:30;98389.50;;;0.35;100.00
55301;BME280;58302;51.446;-2.000;2023-03-09T06:27:56;98388.44;;;0.36;100.00
55301;BME280;58302;51.446;-2.000;2023-03-09T06:30:22;98386.59;;;0.36;100.00
55301;BME280;58302;51.446;-2.000;2023-03-09T06:32:48;98382.84;;;0.37;100.00
55301;BME280;58302;51.446;-2.000;2023-03-09T06:35:14;98387.13;;;0.38;100.00
55301;BME280;58302;51.446;-2.000;2023-03-09T06:37:40;98383.97;;;0.41;100.00
55301;BME280;58302;51.446;-2.000;2023-03-09T06:40:07;98383.66;;;0.38;100.00
55301;BME280;58302;51.446;-2.000;2023-03-09T06:42:37;98387.66;;;0.35;100.00
55301;BME280;58302;51.446;-2.000;2023-03-09T06:45:03;98385.78;;;0.36;100.00
55301;BME280;58302;51.446;-2.000;2023-03-09T06:47:29;98382.03;;;0.37;100.00
55301;BME280;58302;51.446;-2.000;2023-03-09T06:49:55;98381.56;;;0.40;100.00
55301;BME280;58302;51.446;-2.000;2023-03-09T06:52:21;98376.44;;;0.38;100.00
55301;BME280;58302;51.446;-2.000;2023-03-09T06:54:48;98380.22;;;0.42;100.00
55301;BME280;58302;51.446;-2.000;2023-03-09T06:57:14;98370.13;;;0.44;100.00
55301;BME280;58302;51.446;-2.000;2023-03-09T06:59:40;98368.53;;;0.48;100.00
55301;BME280;58302;51.446;-2.000;2023-03-09T07:02:10;98364.00;;;0.49;100.00
55301;BME280;58302;51.446;-2.000;2023-03-09T07:04:36;98369.91;;;0.51;100.00
55301;BME280;58302;51.446;-2.000;2023-03-09T07:07:02;98372.88;;;0.55;100.00
55301;BME280;58302;51.446;-2.000;2023-03-09T07:09:28;98367.03;;;0.58;100.00
55301;BME280;58302;51.446;-2.000;2023-03-09T07:11:58;98363.88;;;0.61;100.00
55301;BME280;58302;51.446;-2.000;2023-03-09T07:14:24;98365.22;;;0.63;100.00
55301;BME280;58302;51.446;-2.000;2023-03-09T07:16:52;98372.19;;;0.64;100.00
55301;BME280;58302;51.446;-2.000;2023-03-09T07:19:19;98373.84;;;0.70;100.00
55301;BME280;58302;51.446;-2.000;2023-03-09T07:21:46;98376.53;;;0.70;100.00
55301;BME280;58302;51.446;-2.000;2023-03-09T07:24:12;98372.56;;;0.73;100.00
55301;BME280;58302;51.446;-2.000;2023-03-09T07:26:38;98369.88;;;0.73;100.00
55301;BME280;58302;51.446;-2.000;2023-03-09T07:29:04;98366.44;;;0.77;100.00
55301;BME280;58302;51.446;-2.000;2023-03-09T07:31:30;98362.97;;;0.77;100.00
55301;BME280;58302;51.446;-2.000;2023-03-09T07:33:56;98374.53;;;0.83;100.00
55301;BME280;58302;51.446;-2.000;2023-03-09T07:36:23;98374.81;;;0.86;100.00
55301;BME280;58302;51.446;-2.000;2023-03-09T07:38:50;98374.00;;;0.86;100.00
55301;BME280;58302;51.446;-2.000;2023-03-09T07:41:17;98372.41;;;0.85;100.00
55301;BME280;58302;51.446;-2.000;2023-03-09T07:43:44;98356.13;;;0.91;100.00
55301;BME280;58302;51.446;-2.000;2023-03-09T07:46:11;98359.06;;;0.90;100.00
55301;BME280;58302;51.446;-2.000;2023-03-09T07:48:38;98360.19;;;0.94;100.00
55301;BME280;58302;51.446;-2.000;2023-03-09T07:51:05;98367.16;;;0.95;100.00
55301;BME280;58302;51.446;-2.000;2023-03-09T07:53:33;98365.28;;;0.95;100.00
55301;BME280;58302;51.446;-2.000;2023-03-09T07:55:59;98368.22;;;0.99;100.00
55301;BME280;58302;51.446;-2.000;2023-03-09T07:58:30;98363.75;;;1.04;100.00
55301;BME280;58302;51.446;-2.000;2023-03-09T08:00:57;98358.72;;;1.13;100.00
55301;BME280;58302;51.446;-2.000;2023-03-09T08:03:24;98349.41;;;1.21;100.00
55301;BME280;58302;51.446;-2.000;2023-03-09T08:05:50;98343.09;;;1.32;100.00
55301;BME280;58302;51.446;-2.000;2023-03-09T08:08:22;98337.28;;;1.45;100.00
55301;BME280;58302;51.446;-2.000;2023-03-09T08:10:51;98332.28;;;1.54;100.00
55301;BME280;58302;51.446;-2.000;2023-03-09T08:13:19;98334.41;;;1.57;100.00
55301;BME280;58302;51.446;-2.000;2023-03-09T08:15:47;98321.06;;;1.62;100.00
55301;BME280;58302;51.446;-2.000;2023-03-09T08:18:14;98330.69;;;1.63;100.00
55301;BME280;58302;51.446;-2.000;2023-03-09T08:20:40;98328.03;;;1.63;100.00
55301;BME280;58302;51.446;-2.000;2023-03-09T08:23:06;98331.00;;;1.67;100.00
55301;BME280;58302;51.446;-2.000;2023-03-09T08:25:32;98326.19;;;1.69;100.00
55301;BME280;58302;51.446;-2.000;2023-03-09T08:27:59;98329.69;;;1.74;100.00
55301;BME280;58302;51.446;-2.000;2023-03-09T08:30:25;98325.41;;;1.73;100.00
55301;BME280;58302;51.446;-2.000;2023-03-09T08:32:52;98324.91;;;1.76;100.00
55301;BME280;58302;51.446;-2.000;2023-03-09T08:35:22;98327.03;;;1.79;100.00
55301;BME280;58302;51.446;-2.000;2023-03-09T08:37:48;98324.66;;;1.83;100.00
55301;BME280;58302;51.446;-2.000;2023-03-09T08:40:15;98310.50;;;1.88;100.00
55301;BME280;58302;51.446;-2.000;2023-03-09T08:42:42;98309.94;;;1.91;100.00
55301;BME280;58302;51.446;-2.000;2023-03-09T08:45:09;98317.75;;;1.97;100.00
55301;BME280;58302;51.446;-2.000;2023-03-09T08:47:35;98315.38;;;2.06;100.00
55301;BME280;58302;51.446;-2.000;2023-03-09T08:50:03;98306.81;;;2.14;100.00
55301;BME280;58302;51.446;-2.000;2023-03-09T08:52:30;98303.91;;;2.21;100.00
55301;BME280;58302;51.446;-2.000;2023-03-09T08:55:01;98302.59;;;2.33;100.00
55301;BME280;58302;51.446;-2.000;2023-03-09T08:57:27;98293.22;;;2.41;100.00
55301;BME280;58302;51.446;-2.000;2023-03-09T08:59:54;98293.53;;;2.55;100.00
55301;BME280;58302;51.446;-2.000;2023-03-09T09:02:19;98285.75;;;2.63;100.00
55301;BME280;58302;51.446;-2.000;2023-03-09T09:04:46;98274.50;;;2.77;100.00
55301;BME280;58302;51.446;-2.000;2023-03-09T09:07:13;98275.84;;;2.89;100.00
55301;BME280;58302;51.446;-2.000;2023-03-09T09:09:40;98277.44;;;3.01;100.00
55301;BME280;58302;51.446;-2.000;2023-03-09T09:12:08;98272.09;;;3.06;100.00
55301;BME280;58302;51.446;-2.000;2023-03-09T09:14:35;98275.84;;;3.20;100.00
55301;BME280;58302;51.446;-2.000;2023-03-09T09:17:05;98272.59;;;3.23;100.00
55301;BME280;58302;51.446;-2.000;2023-03-09T09:19:33;98270.19;;;3.32;100.00
55301;BME280;58302;51.446;-2.000;2023-03-09T09:21:59;98276.03;;;3.49;100.00
55301;BME280;58302;51.446;-2.000;2023-03-09T09:24:29;98271.97;;;3.67;100.00
55301;BME280;58302;51.446;-2.000;2023-03-09T09:26:55;98256.31;;;3.84;100.00
55301;BME280;58302;51.446;-2.000;2023-03-09T09:29:21;98254.66;;;3.93;100.00
55301;BME280;58302;51.446;-2.000;2023-03-09T09:31:48;98252.50;;;3.95;100.00
55301;BME280;58302;51.446;-2.000;2023-03-09T09:34:14;98250.31;;;4.03;100.00
55301;BME280;58302;51.446;-2.000;2023-03-09T09:36:43;98248.91;;;4.15;100.00
55301;BME280;58302;51.446;-2.000;2023-03-09T09:39:11;98246.69;;;4.28;100.00
55301;BME280;58302;51.446;-2.000;2023-03-09T09:41:41;98258.19;;;4.38;100.00
55301;BME280;58302;51.446;-2.000;2023-03-09T09:44:18;98252.44;;;4.50;100.00
55301;BME280;58302;51.446;-2.000;2023-03-09T09:46:46;98246.47;;;4.63;100.00
55301;BME280;58302;51.446;-2.000;2023-03-09T09:49:17;98241.72;;;4.84;100.00
55301;BME280;58302;51.446;-2.000;2023-03-09T09:54:43;98234.41;;;5.19;100.00
55301;BME280;58302;51.446;-2.000;2023-03-09T09:57:51;98225.19;;;5.25;100.00
55301;BME280;58302;51.446;-2.000;2023-03-09T10:00:40;98228.88;;;5.34;100.00
55301;BME280;58302;51.446;-2.000;2023-03-09T10:10:52;98217.78;;;5.36;100.00
55301;BME280;58302;51.446;-2.000;2023-03-09T10:13:25;98216.81;;;5.26;100.00
55301;BME280;58302;51.446;-2.000;2023-03-09T10:15:53;98214.16;;;5.21;100.00
55301;BME280;58302;51.446;-2.000;2023-03-09T10:18:28;98214.50;;;5.15;100.00
55301;BME280;58302;51.446;-2.000;2023-03-09T10:20:55;98212.34;;;5.17;100.00
55301;BME280;58302;51.446;-2.000;2023-03-09T10:23:26;98203.63;;;5.25;100.00
55301;BME280;58302;51.446;-2.000;2023-03-09T10:28:49;98196.94;;;5.46;100.00
55301;BME280;58302;51.446;-2.000;2023-03-09T10:31:39;98197.56;;;5.62;100.00
55301;BME280;58302;51.446;-2.000;2023-03-09T10:34:15;98190.97;;;5.73;100.00
55301;BME280;58302;51.446;-2.000;2023-03-09T10:36:56;98191.94;;;5.82;100.00
55301;BME280;58302;51.446;-2.000;2023-03-09T10:39:24;98189.63;;;5.95;100.00
55301;BME280;58302;51.446;-2.000;2023-03-09T10:41:54;98190.28;;;6.05;100.00
55301;BME280;58302;51.446;-2.000;2023-03-09T10:44:21;98179.78;;;6.23;100.00
55301;BME280;58302;51.446;-2.000;2023-03-09T10:46:59;98183.09;;;6.52;100.00
55301;BME280;58302;51.446;-2.000;2023-03-09T10:49:27;98180.97;;;6.68;100.00
55301;BME280;58302;51.446;-2.000;2023-03-09T10:52:04;98185.63;;;6.81;100.00
55301;BME280;58302;51.446;-2.000;2023-03-09T10:54:36;98183.94;;;6.99;100.00
55301;BME280;58302;51.446;-2.000;2023-03-09T10:57:24;98177.88;;;7.21;100.00
55301;BME280;58302;51.446;-2.000;2023-03-09T11:00:02;98173.97;;;7.55;100.00
55301;BME280;58302;51.446;-2.000;2023-03-09T11:02:34;98173.09;;;8.09;100.00
55301;BME280;58302;51.446;-2.000;2023-03-09T11:05:33;98161.75;;;8.66;100.00
55301;BME280;58302;51.446;-2.000;2023-03-09T11:08:00;98156.06;;;9.30;100.00
55301;BME280;58302;51.446;-2.000;2023-03-09T11:10:30;98153.31;;;9.87;100.00
55301;BME280;58302;51.446;-2.000;2023-03-09T11:12:58;98160.59;;;10.35;100.00
55301;BME280;58302;51.446;-2.000;2023-03-09T11:15:35;98157.06;;;10.51;100.00
55301;BME280;58302;51.446;-2.000;2023-03-09T11:18:08;98157.81;;;10.09;100.00
55301;BME280;58302;51.446;-2.000;2023-03-09T11:20:53;98143.78;;;10.07;100.00
55301;BME280;58302;51.446;-2.000;2023-03-09T11:23:48;98156.25;;;10.51;100.00
55301;BME280;58302;51.446;-2.000;2023-03-09T11:26:25;98154.50;;;10.46;100.00
55301;BME280;58302;51.446;-2.000;2023-03-09T11:29:26;98152.91;;;10.37;100.00
55301;BME280;58302;51.446;-2.000;2023-03-09T11:31:55;98151.94;;;10.41;100.00
55301;BME280;58302;51.446;-2.000;2023-03-09T11:34:32;98156.75;;;10.36;100.00
55301;BME280;58302;51.446;-2.000;2023-03-09T11:37:06;98143.03;;;10.23;100.00
55301;BME280;58302;51.446;-2.000;2023-03-09T11:39:37;98144.28;;;10.35;100.00
55301;BME280;58302;51.446;-2.000;2023-03-09T11:42:13;98132.16;;;10.41;100.00
55301;BME280;58302;51.446;-2.000;2023-03-09T11:44:44;98135.66;;;10.33;100.00
55301;BME280;58302;51.446;-2.000;2023-03-09T11:47:34;98138.97;;;10.21;100.00
55301;BME280;58302;51.446;-2.000;2023-03-09T11:50:11;98131.00;;;10.16;100.00
55301;BME280;58302;51.446;-2.000;2023-03-09T11:52:46;98131.00;;;10.07;100.00
55301;BME280;58302;51.446;-2.000;2023-03-09T11:55:18;98129.41;;;9.97;100.00
55301;BME280;58302;51.446;-2.000;2023-03-09T11:57:48;98126.84;;;9.92;100.00
55301;BME280;58302;51.446;-2.000;2023-03-09T12:00:18;98126.22;;;9.95;100.00
55301;BME280;58302;51.446;-2.000;2023-03-09T12:02:55;98132.78;;;10.12;100.00
55301;BME280;58302;51.446;-2.000;2023-03-09T12:05:25;98127.03;;;10.13;100.00
55301;BME280;58302;51.446;-2.000;2023-03-09T12:07:57;98118.41;;;10.11;100.00
55301;BME280;58302;51.446;-2.000;2023-03-09T12:10:35;98119.50;;;10.01;100.00
55301;BME280;58302;51.446;-2.000;2023-03-09T12:13:19;98113.91;;;9.98;100.00
55301;BME280;58302;51.446;-2.000;2023-03-09T12:15:55;98115.19;;;9.92;100.00
55301;BME280;58302;51.446;-2.000;2023-03-09T12:18:37;98109.91;;;9.87;100.00
55301;BME280;58302;51.446;-2.000;2023-03-09T12:21:06;98107.53;;;9.85;100.00
55301;BME280;58302;51.446;-2.000;2023-03-09T12:26:54;98109.75;;;9.92;100.00
55301;BME280;58302;51.446;-2.000;2023-03-09T12:31:39;98101.19;;;10.24;100.00
55301;BME280;58302;51.446;-2.000;2023-03-09T12:34:25;98096.69;;;10.46;100.00
55301;BME280;58302;51.446;-2.000;2023-03-09T12:36:51;98093.75;;;10.60;100.00
55301;BME280;58302;51.446;-2.000;2023-03-09T12:49:57;98084.38;;;11.63;100.00
55301;BME280;58302;51.446;-2.000;2023-03-09T12:52:47;98069.22;;;11.83;100.00
55301;BME280;58302;51.446;-2.000;2023-03-09T12:55:23;98065.00;;;12.27;100.00
55301;BME280;58302;51.446;-2.000;2023-03-09T12:58:32;98052.25;;;12.52;100.00
55301;BME280;58302;51.446;-2.000;2023-03-09T13:03:31;98046.50;;;12.78;100.00
55301;BME280;58302;51.446;-2.000;2023-03-09T13:06:03;98050.88;;;12.46;100.00
55301;BME280;58302;51.446;-2.000;2023-03-09T13:08:39;98051.88;;;12.42;100.00
55301;BME280;58302;51.446;-2.000;2023-03-09T13:13:58;98038.31;;;12.54;100.00
55301;BME280;58302;51.446;-2.000;2023-03-09T13:21:44;98035.94;;;11.77;100.00
55301;BME280;58302;51.446;-2.000;2023-03-09T13:30:19;98041.19;;;11.02;100.00
55301;BME280;58302;51.446;-2.000;2023-03-09T13:35:41;98031.22;;;11.15;100.00
55301;BME280;58302;51.446;-2.000;2023-03-09T13:38:19;98017.50;;;11.12;100.00
55301;BME280;58302;51.446;-2.000;2023-03-09T13:40:48;98023.13;;;11.06;100.00
55301;BME280;58302;51.446;-2.000;2023-03-09T13:43:19;98015.91;;;11.11;100.00
55301;BME280;58302;51.446;-2.000;2023-03-09T13:48:44;98009.44;;;11.24;100.00
55301;BME280;58302;51.446;-2.000;2023-03-09T13:53:51;97999.00;;;11.26;100.00
55301;BME280;58302;51.446;-2.000;2023-03-09T13:56:18;97996.25;;;11.34;100.00
55301;BME280;58302;51.446;-2.000;2023-03-09T13:58:44;97998.44;;;11.41;100.00